NATURA VA

 INFORMACIÓN METAR y TAF
METAR FOR LEZL
ADDS - METARS form results

(0019 UTC 20 May 2019)
Data provider http://aviationweather.gov/metar/data/
 
METAR text: LEZL 200000Z AUTO 20005KT 160V230 CAVOK 18/15 Q1013
Conditions at: LEZL (SEVILLA (CIV/MIL, ES) observed 0000 UTC 20 May 2019
Temperature: 18.0°C (64°F)
Dewpoint: 15.0°C (59°F) [RH = 83%]
Pressure (altimeter): 29.91 inches Hg (1013.0 mb)
Winds: from the SSW (200 degrees) at 6 MPH (5 knots; 2.6 m/s)
Visibility: 6 or more miles (10+ km)
Ceiling: ceiling and visibility are OK
Clouds: unknown
Weather: no significant weather observed at this time

METAR text: LEZL 192330Z 22003KT 150V250 CAVOK 18/15 Q1013 NOSIG
Conditions at: LEZL (SEVILLA (CIV/MIL, ES) observed 2330 UTC 19 May 2019
Temperature: 18.0°C (64°F)
Dewpoint: 15.0°C (59°F) [RH = 83%]
Pressure (altimeter): 29.91 inches Hg (1013.0 mb)
Winds: from the SW (220 degrees) at 3 MPH (3 knots; 1.5 m/s)
Visibility: 6 or more miles (10+ km)
Ceiling: ceiling and visibility are OK
Clouds: unknown
Weather: no significant weather observed at this time

Forecast for: LEZL (SEVILLA (CIV/MIL, ES)
Text: TAF LEZL 192000Z 1921/2021 24010KT CAVOK TX29/2015Z TN13/2005Z
Forecast period: 2100 UTC 19 May 2019 to 2100 UTC 20 May 2019
Forecast type: FROM: standard forecast or significant change
Winds: from the WSW (240 degrees) at 12 MPH (10 knots; 5.1 m/s)
Visibility: 6 or more miles 10+ km)
Ceiling: unknown
Clouds: missing
Weather: no significant weather forecast for this period
Text: BECMG 1921/1923 VRB02KT
Forecast period: 2100 UTC 19 May 2019 to 1300 UTC 20 May 2019
Forecast type: BECOMING: Conditions expected to become as follows by 2300 UTC 19 May 2019
Winds: variable direction winds at 2 MPH (2 knots; 1.0 m/s)
Visibility: 6 or more miles 10+ km)
Ceiling: unknown
Clouds: missing
Weather: no significant weather forecast for this period
Text: BECMG 2013/2015 25010KT
Forecast period: 1300 to 2100 UTC 20 May 2019
Forecast type: BECOMING: Conditions expected to become as follows by 1500 UTC 20 May 2019
Winds: from the WSW (250 degrees) at 12 MPH (10 knots; 5.1 m/s)
Visibility: 6 or more miles 10+ km)
Ceiling: unknown
Clouds: missing
Weather: no significant weather forecast for this period

 MAPA DE AEROPUERTO

 INFORMACIÓN DE PISTA
Pista 09 Longitud 11024 ft Ancho 148 ft
Elevación 83 ft Umbral desplazado 0 ft Rumbo de pista 90
Pista 27 Longitud 11024 ft Ancho 148 ft
Elevación 111 ft Umbral desplazado 0 ft Rumbo de pista 270

 FRECUANCIAS DEL AEROPUERTO
Tipo APP Nombre APP Frecuencia 120 MHZ
Tipo ATIS Nombre ATIS Frecuencia 118.175 MHZ
Tipo GND Nombre GND Frecuencia 121.7 MHZ
Tipo TWR Nombre TWR Frecuencia 118.1 MHZ

 RADIO AYUDAS DEL AEROPUERTO
Tipo NDB Nombre Sevilla Frecuencia 420 KHZ
Tipo VOR-DME Nombre Sevilla Frecuencia 113700 KHZ



Powered by Virtual Airlines Manager [v2.6.2]